createdAt,value
2018-11-07T00:02:22.948Z,94997.59
2018-11-07T00:04:54.985Z,95005.48
2018-11-07T00:07:26.958Z,95003.88
2018-11-07T00:10:11.693Z,95003.97
2018-11-07T00:12:43.500Z,95010.85
2018-11-07T00:15:16.669Z,95005.09
2018-11-07T00:17:51.294Z,94999.63
2018-11-07T00:20:25.778Z,94992.77
2018-11-07T00:22:57.722Z,94999.86
2018-11-07T00:25:29.536Z,94997.91
2018-11-07T00:28:03.159Z,94998.27
2018-11-07T00:30:35.013Z,94986.97
2018-11-07T00:33:07.109Z,94997.22
2018-11-07T00:35:38.936Z,94991.94
2018-11-07T00:38:10.722Z,94992.27
2018-11-07T00:40:42.533Z,94991.02
2018-11-07T00:43:14.342Z,94988.92
2018-11-07T00:45:46.164Z,94988.59
2018-11-07T00:48:17.958Z,94995.35
2018-11-07T00:50:49.787Z,94989.91
2018-11-07T00:53:21.612Z,94996.05
2018-11-07T00:55:53.549Z,94996.43
2018-11-07T00:58:25.347Z,94997.83
2018-11-07T01:00:57.423Z,94995.08
2018-11-07T01:03:29.205Z,94985.61
2018-11-07T01:06:01.026Z,94984.31
2018-11-07T01:08:32.837Z,94984.86
2018-11-07T01:11:04.705Z,94994.27
2018-11-07T01:13:36.796Z,94992.21
2018-11-07T01:16:08.934Z,94989.83
2018-11-07T01:18:40.737Z,94981.77
2018-11-07T01:21:12.578Z,94982.41
2018-11-07T01:23:44.356Z,94986.70
2018-11-07T01:26:21.869Z,94987.52
2018-11-07T01:28:53.679Z,94990.31
2018-11-07T01:31:26.129Z,94987.39
2018-11-07T01:33:57.934Z,94984.39
2018-11-07T01:36:29.739Z,94978.09
2018-11-07T01:39:01.523Z,94973.13
2018-11-07T01:41:33.344Z,94973.39
2018-11-07T01:44:05.133Z,94969.97
2018-11-07T01:46:39.394Z,94963.44
2018-11-07T01:49:11.234Z,94962.05
2018-11-07T01:51:43.061Z,94958.23
2018-11-07T01:54:17.175Z,94958.78
2018-11-07T01:56:46.716Z,94956.28
2018-11-07T01:59:18.511Z,94950.25
2018-11-07T02:01:50.330Z,94947.86
2018-11-07T02:04:22.123Z,94952.39
2018-11-07T02:06:53.946Z,94948.95
2018-11-07T02:09:25.755Z,94950.86
2018-11-07T02:11:57.575Z,94947.86
2018-11-07T02:14:29.378Z,94951.50
2018-11-07T02:17:01.295Z,94955.80
2018-11-07T02:19:33.076Z,94959.68
2018-11-07T02:22:04.902Z,94955.11
2018-11-07T02:24:36.705Z,94963.95
2018-11-07T02:27:08.689Z,94961.77
2018-11-07T02:29:40.488Z,94970.41
2018-11-07T02:32:12.359Z,94968.64
2018-11-07T02:34:44.184Z,94967.48
2018-11-07T02:37:16.001Z,94960.20
2018-11-07T02:39:47.778Z,94958.91
2018-11-07T02:42:19.595Z,94957.72
2018-11-07T02:44:51.424Z,94954.92
2018-11-07T02:47:23.258Z,94957.45
2018-11-07T02:49:55.056Z,94948.19
2018-11-07T02:52:27.000Z,94949.91
2018-11-07T02:54:58.856Z,94955.02
2018-11-07T02:57:30.729Z,94950.28
2018-11-07T03:00:02.519Z,94948.66
2018-11-07T03:02:34.329Z,94948.25
2018-11-07T03:05:06.163Z,94948.28
2018-11-07T03:07:38.753Z,94949.84
2018-11-07T03:10:12.627Z,94937.89
2018-11-07T03:12:44.426Z,94939.36
2018-11-07T03:15:16.215Z,94934.41
2018-11-07T03:17:48.064Z,94934.27
2018-11-07T03:20:19.855Z,94927.27
2018-11-07T03:22:51.701Z,94929.62
2018-11-07T03:25:23.503Z,94920.76
2018-11-07T03:27:55.380Z,94919.82
2018-11-07T03:30:27.183Z,94913.41
2018-11-07T03:32:58.986Z,94914.25
2018-11-07T03:35:30.785Z,94921.79
2018-11-07T03:38:02.610Z,94928.45
2018-11-07T03:40:34.399Z,94933.07
2018-11-07T03:43:06.691Z,94928.39
2018-11-07T03:45:55.915Z,94935.78
2018-11-07T03:48:29.102Z,94926.41
2018-11-07T03:51:01.443Z,94930.81
2018-11-07T03:53:33.277Z,94928.78
2018-11-07T03:56:05.085Z,94927.39
2018-11-07T03:58:36.881Z,94927.75
2018-11-07T04:01:08.721Z,94922.41
2018-11-07T04:03:42.419Z,94920.20
2018-11-07T04:06:14.241Z,94916.90
2018-11-07T04:08:48.304Z,94912.23
2018-11-07T04:11:20.653Z,94919.29
2018-11-07T04:13:52.453Z,94918.08
2018-11-07T04:16:24.333Z,94908.56
2018-11-07T04:18:56.169Z,94900.97
2018-11-07T04:21:27.965Z,94905.00
2018-11-07T04:24:06.401Z,94918.13
2018-11-07T04:26:38.938Z,94916.98
2018-11-07T04:29:10.753Z,94914.66
2018-11-07T04:31:42.822Z,94916.98
2018-11-07T04:34:17.651Z,94913.47
2018-11-07T04:36:52.285Z,94916.44
2018-11-07T04:39:24.226Z,94915.72
2018-11-07T04:42:02.093Z,94911.14
2018-11-07T04:44:34.030Z,94909.20
2018-11-07T04:47:06.052Z,94910.53
2018-11-07T04:49:37.946Z,94902.33
2018-11-07T04:52:09.814Z,94896.83
2018-11-07T04:54:41.729Z,94903.30
2018-11-07T04:57:13.658Z,94902.78
2018-11-07T04:59:45.576Z,94904.58
2018-11-07T05:02:17.442Z,94899.17
2018-11-07T05:04:49.246Z,94900.34
2018-11-07T05:07:21.177Z,94899.30
2018-11-07T05:09:53.001Z,94900.38
2018-11-07T05:12:24.794Z,94901.59
2018-11-07T05:14:56.641Z,94906.69
2018-11-07T05:17:28.521Z,94894.83
2018-11-07T05:20:00.410Z,94896.31
2018-11-07T05:22:32.245Z,94891.80
2018-11-07T05:25:04.108Z,94896.10
2018-11-07T05:27:35.934Z,94901.21
2018-11-07T05:30:09.869Z,94908.61
2018-11-07T05:32:42.066Z,94909.58
2018-11-07T05:35:13.966Z,94908.06
2018-11-07T05:37:45.894Z,94897.41
2018-11-07T05:40:17.706Z,94902.53
2018-11-07T05:42:49.484Z,94907.53
2018-11-07T05:45:21.453Z,94907.91
2018-11-07T05:47:53.296Z,94904.77
2018-11-07T05:50:25.164Z,94904.20
2018-11-07T05:52:56.949Z,94899.23
2018-11-07T05:55:28.828Z,94906.53
2018-11-07T05:58:00.630Z,94902.11
2018-11-07T06:00:32.500Z,94902.79
2018-11-07T06:03:04.433Z,94900.53
2018-11-07T06:05:36.385Z,94895.28
2018-11-07T06:08:08.435Z,94906.83
2018-11-07T06:10:40.323Z,94910.83
2018-11-07T06:13:12.103Z,94916.08
2018-11-07T06:15:47.653Z,94918.66
2018-11-07T06:18:19.460Z,94923.75
2018-11-07T06:20:51.323Z,94921.42
2018-11-07T06:23:23.314Z,94921.88
2018-11-07T06:25:55.148Z,94925.46
2018-11-07T06:28:26.980Z,94925.54
2018-11-07T06:30:59.015Z,94925.96
2018-11-07T06:33:30.854Z,94927.00
2018-11-07T06:36:03.267Z,94925.33
2018-11-07T06:38:35.094Z,94932.41
2018-11-07T06:41:06.960Z,94927.66
2018-11-07T06:43:38.831Z,94933.95
2018-11-07T06:46:10.799Z,94935.70
2018-11-07T06:48:42.677Z,94932.50
2018-11-07T06:51:14.506Z,94945.08
2018-11-07T06:53:46.362Z,94942.59
2018-11-07T06:56:18.172Z,94937.42
2018-11-07T06:58:50.061Z,94943.58
2018-11-07T07:01:21.954Z,94940.25
2018-11-07T07:03:53.868Z,94937.84
2018-11-07T07:06:25.836Z,94935.25
2018-11-07T07:08:57.745Z,94926.70
2018-11-07T07:11:29.701Z,94925.13
2018-11-07T07:14:01.527Z,94926.34
2018-11-07T07:16:33.484Z,94928.50
2018-11-07T07:19:05.314Z,94935.00
2018-11-07T07:21:37.209Z,94930.59
2018-11-07T07:24:09.180Z,94940.05
2018-11-07T07:26:41.010Z,94939.30
2018-11-07T07:29:12.970Z,94945.77
2018-11-07T07:31:45.061Z,94949.34
2018-11-07T07:34:17.086Z,94944.55
2018-11-07T07:36:49.048Z,94941.04
2018-11-07T07:39:20.902Z,94935.38
2018-11-07T07:41:52.927Z,94937.30
2018-11-07T07:44:24.777Z,94935.55
2018-11-07T07:46:56.664Z,94936.22
2018-11-07T07:49:28.518Z,94936.30
2018-11-07T07:52:00.362Z,94933.91
2018-11-07T07:54:32.245Z,94927.57
2018-11-07T07:57:04.130Z,94925.70
2018-11-07T07:59:36.022Z,94922.06
2018-11-07T08:02:08.114Z,94920.62
2018-11-07T08:04:40.031Z,94914.90
2018-11-07T08:07:11.908Z,94913.42
2018-11-07T08:09:43.728Z,94910.48
2018-11-07T08:12:15.679Z,94910.19
2018-11-07T08:14:47.501Z,94903.38
2018-11-07T08:17:19.450Z,94904.72
2018-11-07T08:19:51.500Z,94913.39
2018-11-07T08:22:23.362Z,94916.39
2018-11-07T08:24:55.187Z,94915.98
2018-11-07T08:27:27.063Z,94920.84
2018-11-07T08:29:58.875Z,94919.56
2018-11-07T08:32:30.790Z,94920.13
2018-11-07T08:35:02.719Z,94924.69
2018-11-07T08:37:34.589Z,94917.14
2018-11-07T08:40:09.214Z,94920.00
2018-11-07T08:42:41.313Z,94924.15
2018-11-07T08:45:13.984Z,94919.67
2018-11-07T08:47:46.809Z,94913.02
2018-11-07T08:50:22.299Z,94911.48
2018-11-07T08:52:54.168Z,94913.32
2018-11-07T08:55:26.048Z,94919.52
2018-11-07T08:57:57.918Z,94917.28
2018-11-07T09:00:29.792Z,94909.48
2018-11-07T09:03:01.746Z,94912.34
2018-11-07T09:05:33.584Z,94919.24
2018-11-07T09:08:05.578Z,94917.06
2018-11-07T09:10:37.313Z,94921.63
2018-11-07T09:13:09.339Z,94918.77
2018-11-07T09:15:41.212Z,94920.85
2018-11-07T09:18:13.148Z,94914.41
2018-11-07T09:20:45.053Z,94913.56
2018-11-07T09:23:17.003Z,94912.42
2018-11-07T09:25:48.915Z,94910.27
2018-11-07T09:28:20.933Z,94908.47
2018-11-07T09:30:52.736Z,94897.44
2018-11-07T09:33:24.638Z,94895.30
2018-11-07T09:35:56.467Z,94894.19
2018-11-07T09:38:28.307Z,94889.63
2018-11-07T09:41:00.143Z,94885.91
2018-11-07T09:43:34.198Z,94893.88
2018-11-07T09:46:03.834Z,94890.69
2018-11-07T09:48:35.764Z,94888.23
2018-11-07T09:51:07.771Z,94880.84
2018-11-07T09:53:39.754Z,94888.22
2018-11-07T09:56:11.643Z,94887.73
2018-11-07T09:58:43.626Z,94888.22
2018-11-07T10:01:15.360Z,94885.45
2018-11-07T10:03:47.252Z,94887.56
2018-11-07T10:06:19.156Z,94886.28
2018-11-07T10:08:51.062Z,94889.33
2018-11-07T10:11:22.966Z,94884.77
2018-11-07T10:13:54.854Z,94882.71
2018-11-07T10:16:26.898Z,94884.51
2018-11-07T10:18:58.764Z,94887.14
2018-11-07T10:21:30.597Z,94886.98
2018-11-07T10:24:02.528Z,94878.14
2018-11-07T10:26:34.534Z,94878.73
2018-11-07T10:29:06.934Z,94874.34
2018-11-07T10:31:38.580Z,94870.53
2018-11-07T10:34:10.448Z,94863.94
2018-11-07T10:36:42.319Z,94858.38
2018-11-07T10:39:14.187Z,94849.88
2018-11-07T10:41:46.080Z,94845.91
2018-11-07T10:44:17.986Z,94844.21
2018-11-07T10:46:49.791Z,94840.24
2018-11-07T10:49:21.712Z,94839.33
2018-11-07T10:51:53.627Z,94839.98
2018-11-07T10:54:25.644Z,94842.13
2018-11-07T10:56:57.474Z,94847.88
2018-11-07T10:59:29.345Z,94839.64
2018-11-07T11:02:22.772Z,94839.72
2018-11-07T11:04:54.682Z,94839.33
2018-11-07T11:07:26.779Z,94835.00
2018-11-07T11:09:58.746Z,94832.91
2018-11-07T11:12:30.996Z,94826.62
2018-11-07T11:15:02.847Z,94826.39
2018-11-07T11:17:34.943Z,94828.62
2018-11-07T11:20:08.896Z,94827.60
2018-11-07T11:22:40.772Z,94819.08
2018-11-07T11:25:12.918Z,94814.38
2018-11-07T11:27:44.884Z,94819.56
2018-11-07T11:30:16.789Z,94817.09
2018-11-07T11:32:48.833Z,94815.27
2018-11-07T11:35:20.860Z,94817.50
2018-11-07T11:37:52.819Z,94815.67
2018-11-07T11:40:25.674Z,94812.00
2018-11-07T11:42:57.507Z,94806.88
2018-11-07T11:45:29.378Z,94805.30
2018-11-07T11:48:01.190Z,94804.25
2018-11-07T11:50:33.237Z,94798.44
2018-11-07T11:53:05.152Z,94795.27
2018-11-07T11:55:37.061Z,94798.44
2018-11-07T11:58:10.746Z,94794.14
2018-11-07T12:00:43.314Z,94791.51
2018-11-07T12:03:15.211Z,94799.33
2018-11-07T12:05:47.094Z,94800.69
2018-11-07T12:08:19.096Z,94797.13
2018-11-07T12:10:51.074Z,94797.28
2018-11-07T12:13:23.039Z,94794.95
2018-11-07T12:15:54.908Z,94787.73
2018-11-07T12:18:27.278Z,94788.31
2018-11-07T12:20:59.214Z,94787.67
2018-11-07T12:23:31.041Z,94786.98
2018-11-07T12:26:02.905Z,94788.03
2018-11-07T12:28:34.872Z,94790.81
2018-11-07T12:31:07.189Z,94795.38
2018-11-07T12:33:39.062Z,94794.84
2018-11-07T12:36:10.923Z,94791.00
2018-11-07T12:38:42.752Z,94788.10
2018-11-07T12:41:14.778Z,94787.72
2018-11-07T12:43:46.650Z,94782.92
2018-11-07T12:46:18.507Z,94790.73
2018-11-07T12:48:50.347Z,94788.19
2018-11-07T12:51:22.356Z,94786.41
2018-11-07T12:53:54.477Z,94795.30
2018-11-07T12:56:26.387Z,94787.16
2018-11-07T12:58:58.198Z,94794.19
2018-11-07T13:01:30.056Z,94787.80
2018-11-07T13:04:01.949Z,94790.06
2018-11-07T13:06:34.679Z,94789.06
2018-11-07T13:09:09.437Z,94796.23
2018-11-07T13:11:42.038Z,94793.91
2018-11-07T13:14:13.897Z,94799.94
2018-11-07T13:16:45.823Z,94802.37
2018-11-07T13:19:17.626Z,94802.42
2018-11-07T13:21:49.506Z,94800.26
2018-11-07T13:24:21.371Z,94799.74
2018-11-07T13:26:53.229Z,94806.94
2018-11-07T13:29:25.079Z,94799.48
2018-11-07T13:31:57.022Z,94797.74
2018-11-07T13:34:28.830Z,94794.19
2018-11-07T13:37:00.816Z,94790.00
2018-11-07T13:39:32.656Z,94787.27
2018-11-07T13:42:04.535Z,94790.52
2018-11-07T13:44:36.399Z,94798.26
2018-11-07T13:47:08.241Z,94793.45
2018-11-07T13:49:40.081Z,94798.86
2018-11-07T13:52:11.957Z,94802.69
2018-11-07T13:54:43.879Z,94803.81
2018-11-07T13:57:15.768Z,94806.04
2018-11-07T13:59:47.745Z,94803.06
2018-11-07T14:02:19.651Z,94797.80
2018-11-07T14:04:51.517Z,94804.98
2018-11-07T14:07:23.486Z,94802.08
2018-11-07T14:09:55.607Z,94803.11
2018-11-07T14:12:27.435Z,94799.89
2018-11-07T14:14:59.374Z,94800.56
2018-11-07T14:17:31.261Z,94798.43
2018-11-07T14:20:03.243Z,94801.41
2018-11-07T14:22:35.178Z,94799.22
2018-11-07T14:25:08.077Z,94794.98
2018-11-07T14:27:40.201Z,94797.31
2018-11-07T14:30:16.727Z,94803.65
2018-11-07T14:32:52.083Z,94799.59
2018-11-07T14:35:24.286Z,94804.91
2018-11-07T14:37:57.177Z,94806.70
2018-11-07T14:40:29.189Z,94816.39
2018-11-07T14:43:01.127Z,94808.66
2018-11-07T14:45:32.958Z,94797.16
2018-11-07T14:48:04.871Z,94804.39
2018-11-07T14:50:36.724Z,94807.92
2018-11-07T14:53:08.900Z,94799.83
2018-11-07T14:55:40.783Z,94808.28
2018-11-07T14:58:12.768Z,94808.28
2018-11-07T15:00:44.626Z,94813.34
2018-11-07T15:03:16.531Z,94823.70
2018-11-07T15:05:48.462Z,94826.17
2018-11-07T15:08:21.101Z,94829.11
2018-11-07T15:10:53.005Z,94831.87
2018-11-07T15:13:24.913Z,94832.86
2018-11-07T15:15:57.073Z,94830.43
2018-11-07T15:18:29.279Z,94828.19
2018-11-07T15:21:01.129Z,94821.50
2018-11-07T15:23:33.003Z,94830.17
2018-11-07T15:26:07.729Z,94828.30
2018-11-07T15:28:39.632Z,94835.33
2018-11-07T15:31:11.574Z,94835.59
2018-11-07T15:33:43.586Z,94841.11
2018-11-07T15:36:15.671Z,94852.12
2018-11-07T15:38:47.457Z,94847.00
2018-11-07T15:41:19.348Z,94857.32
2018-11-07T15:43:51.217Z,94863.65
2018-11-07T15:46:23.100Z,94865.09
2018-11-07T15:48:54.987Z,94876.75
2018-11-07T15:51:35.925Z,94881.33
2018-11-07T15:54:08.705Z,94885.13
2018-11-07T15:56:40.615Z,94896.09
2018-11-07T15:59:12.445Z,94899.89
2018-11-07T16:01:44.325Z,94899.03
2018-11-07T16:04:16.201Z,94899.99
2018-11-07T16:06:48.122Z,94902.83
2018-11-07T16:09:20.029Z,94905.31
2018-11-07T16:11:51.923Z,94910.37
2018-11-07T16:14:23.907Z,94918.88
2018-11-07T16:16:55.728Z,94915.27
2018-11-07T16:19:27.557Z,94925.36
2018-11-07T16:21:59.449Z,94925.77
2018-11-07T16:24:31.320Z,94931.95
2018-11-07T16:27:03.348Z,94944.05
2018-11-07T16:29:35.253Z,94958.47
2018-11-07T16:32:07.421Z,94960.48
2018-11-07T16:34:39.300Z,94956.88
2018-11-07T16:37:11.225Z,94960.65
2018-11-07T16:39:43.339Z,94978.61
2018-11-07T16:42:15.181Z,94986.14
2018-11-07T16:44:47.108Z,94976.84
2018-11-07T16:47:18.970Z,94986.01
2018-11-07T16:49:50.816Z,94991.22
2018-11-07T16:52:22.663Z,94993.48
2018-11-07T16:54:54.835Z,95003.94
2018-11-07T16:57:26.803Z,95011.46
2018-11-07T16:59:58.676Z,95014.39
2018-11-07T17:02:32.699Z,95017.81
2018-11-07T17:05:04.642Z,95023.16
2018-11-07T17:07:36.428Z,95027.17
2018-11-07T17:10:09.804Z,95028.47
2018-11-07T17:12:41.740Z,95036.25
2018-11-07T17:15:13.660Z,95052.86
2018-11-07T17:17:45.847Z,95052.86
2018-11-07T17:20:17.750Z,95061.52
2018-11-07T17:22:49.680Z,95059.14
2018-11-07T17:25:22.036Z,95067.36
2018-11-07T17:27:53.999Z,95070.67
2018-11-07T17:30:25.797Z,95075.03
2018-11-07T17:32:57.686Z,95077.11
2018-11-07T17:35:29.666Z,95086.59
2018-11-07T17:38:01.471Z,95091.76
2018-11-07T17:40:33.311Z,95093.48
2018-11-07T17:43:05.248Z,95098.91
2018-11-07T17:45:37.133Z,95092.98
2018-11-07T17:48:09.181Z,95103.27
2018-11-07T17:50:40.858Z,95104.41
2018-11-07T17:53:12.732Z,95112.22
2018-11-07T17:55:44.545Z,95121.19
2018-11-07T17:58:16.489Z,95121.64
2018-11-07T18:00:48.812Z,95118.20
2018-11-07T18:03:20.674Z,95124.50
2018-11-07T18:05:55.591Z,95113.94
2018-11-07T18:08:27.534Z,95115.95
2018-11-07T18:10:59.554Z,95122.72
2018-11-07T18:13:31.325Z,95125.19
2018-11-07T18:16:03.193Z,95123.38
2018-11-07T18:18:35.081Z,95131.55
2018-11-07T18:21:06.878Z,95134.80
2018-11-07T18:23:38.753Z,95135.95
2018-11-07T18:26:10.660Z,95133.72
2018-11-07T18:28:43.333Z,95141.96
2018-11-07T18:31:15.438Z,95142.90
2018-11-07T18:33:47.335Z,95148.28
2018-11-07T18:36:19.243Z,95163.03
2018-11-07T18:38:51.139Z,95165.23
2018-11-07T18:41:22.997Z,95166.75
2018-11-07T18:43:54.843Z,95167.50
2018-11-07T18:46:26.726Z,95170.11
2018-11-07T18:48:58.546Z,95170.28
2018-11-07T18:51:30.443Z,95180.26
2018-11-07T18:54:02.486Z,95179.02
2018-11-07T18:56:34.343Z,95188.05
2018-11-07T18:59:06.248Z,95182.20
2018-11-07T19:01:38.142Z,95192.36
2018-11-07T19:04:10.009Z,95196.41
2018-11-07T19:06:41.876Z,95202.95
2018-11-07T19:09:13.692Z,95205.51
2018-11-07T19:11:45.555Z,95213.62
2018-11-07T19:14:17.484Z,95218.84
2018-11-07T19:16:49.532Z,95223.02
2018-11-07T19:19:21.372Z,95223.95
2018-11-07T19:21:53.221Z,95219.76
2018-11-07T19:24:25.067Z,95219.56
2018-11-07T19:26:57.112Z,95219.42
2018-11-07T19:29:28.804Z,95217.57
2018-11-07T19:32:00.679Z,95225.04
2018-11-07T19:34:32.511Z,95229.55
2018-11-07T19:37:04.427Z,95236.67
2018-11-07T19:39:36.263Z,95240.50
2018-11-07T19:42:08.549Z,95241.66
2018-11-07T19:44:40.559Z,95260.75
2018-11-07T19:47:12.441Z,95259.38
2018-11-07T19:49:44.283Z,95261.76
2018-11-07T19:52:16.140Z,95263.70
2018-11-07T19:54:48.027Z,95257.12
2018-11-07T19:57:19.914Z,95260.40
2018-11-07T19:59:51.862Z,95262.91
2018-11-07T20:02:23.737Z,95266.94
2018-11-07T20:04:55.590Z,95270.52
2018-11-07T20:07:27.498Z,95276.13
2018-11-07T20:09:59.342Z,95280.53
2018-11-07T20:12:31.345Z,95283.69
2018-11-07T20:15:03.188Z,95288.45
2018-11-07T20:17:35.073Z,95290.98
2018-11-07T20:20:07.208Z,95298.91
2018-11-07T20:22:39.141Z,95303.91
2018-11-07T20:25:12.240Z,95311.09
2018-11-07T20:27:44.786Z,95315.23
2018-11-07T20:30:18.131Z,95315.66
2018-11-07T20:32:49.995Z,95316.06
2018-11-07T20:35:22.407Z,95323.13
2018-11-07T20:37:54.243Z,95324.75
2018-11-07T20:40:26.064Z,95326.17
2018-11-07T20:42:57.979Z,95332.83
2018-11-07T20:45:29.854Z,95335.23
2018-11-07T20:48:01.771Z,95336.67
2018-11-07T20:50:33.618Z,95340.47
2018-11-07T20:53:05.525Z,95340.84
2018-11-07T20:55:37.393Z,95339.30
2018-11-07T20:58:09.402Z,95339.55
2018-11-07T21:00:41.217Z,95345.20
2018-11-07T21:03:13.057Z,95345.34
2018-11-07T21:05:44.919Z,95356.59
2018-11-07T21:08:16.792Z,95356.27
2018-11-07T21:10:48.649Z,95358.11
2018-11-07T21:13:20.501Z,95369.80
2018-11-07T21:15:52.329Z,95360.94
2018-11-07T21:18:24.166Z,95365.67
2018-11-07T21:20:56.037Z,95358.59
2018-11-07T21:23:27.977Z,95370.34
2018-11-07T21:25:59.796Z,95365.36
2018-11-07T21:28:31.753Z,95362.83
2018-11-07T21:31:03.654Z,95367.09
2018-11-07T21:33:35.770Z,95371.72
2018-11-07T21:36:07.773Z,95376.70
2018-11-07T21:38:39.611Z,95375.80
2018-11-07T21:41:11.423Z,95374.83
2018-11-07T21:43:43.590Z,95380.16
2018-11-07T21:46:15.562Z,95373.54
2018-11-07T21:48:47.405Z,95382.70
2018-11-07T21:51:19.310Z,95387.08
2018-11-07T21:53:51.189Z,95395.94
2018-11-07T21:56:23.006Z,95394.67
2018-11-07T21:58:54.883Z,95400.76
2018-11-07T22:01:26.685Z,95400.08
2018-11-07T22:03:58.526Z,95404.02
2018-11-07T22:06:30.325Z,95416.78
2018-11-07T22:09:02.199Z,95419.13
2018-11-07T22:11:34.049Z,95419.25
2018-11-07T22:14:06.412Z,95413.55
2018-11-07T22:16:38.863Z,95425.65
2018-11-07T22:19:10.681Z,95421.76
2018-11-07T22:21:42.482Z,95428.98
2018-11-07T22:24:14.390Z,95429.67
2018-11-07T22:26:46.173Z,95433.31
2018-11-07T22:29:18.045Z,95428.12
2018-11-07T22:31:50.102Z,95438.25
2018-11-07T22:34:21.931Z,95434.17
2018-11-07T22:36:53.724Z,95435.02
2018-11-07T22:39:25.541Z,95440.70
2018-11-07T22:41:57.325Z,95437.70
2018-11-07T22:44:29.159Z,95448.41
2018-11-07T22:47:00.977Z,95452.93
2018-11-07T22:49:32.801Z,95455.89
2018-11-07T22:52:04.596Z,95458.45
2018-11-07T22:54:36.488Z,95455.09
2018-11-07T22:57:08.359Z,95459.01
2018-11-07T22:59:40.214Z,95464.55
2018-11-07T23:02:12.043Z,95468.31
2018-11-07T23:04:44.875Z,95466.19
2018-11-07T23:07:16.718Z,95470.77
2018-11-07T23:09:48.563Z,95470.17
2018-11-07T23:12:20.397Z,95471.02
2018-11-07T23:14:53.829Z,95477.37
2018-11-07T23:17:24.514Z,95476.41
2018-11-07T23:19:56.367Z,95476.41
2018-11-07T23:22:28.163Z,95480.67
2018-11-07T23:25:00.035Z,95482.30
2018-11-07T23:27:31.854Z,95489.14
2018-11-07T23:30:03.679Z,95488.89
2018-11-07T23:32:35.502Z,95498.54
2018-11-07T23:35:08.005Z,95504.67
2018-11-07T23:37:39.803Z,95501.48
2018-11-07T23:40:11.606Z,95499.60
2018-11-07T23:42:45.596Z,95504.42
2018-11-07T23:45:17.555Z,95510.56
2018-11-07T23:47:49.396Z,95510.89
2018-11-07T23:50:21.221Z,95511.75
2018-11-07T23:52:53.931Z,95518.91
2018-11-07T23:55:44.556Z,95521.84
2018-11-07T23:58:16.367Z,95513.51
